createdAt,value
2018-12-02T00:00:01.041Z,7.2
2018-12-02T00:15:01.089Z,7.2
2018-12-02T00:30:01.075Z,7.2
2018-12-02T00:35:00.912Z,7.1
2018-12-02T00:45:01.097Z,7.1
2018-12-02T01:00:01.116Z,7.1
2018-12-02T01:15:01.438Z,7.1
2018-12-02T01:30:01.095Z,7.1
2018-12-02T01:45:01.143Z,7.1
2018-12-02T02:00:01.148Z,7.1
2018-12-02T02:05:00.895Z,7.0
2018-12-02T02:15:01.120Z,7.0
2018-12-02T02:30:01.123Z,7.0
2018-12-02T02:45:01.123Z,7.0
2018-12-02T03:00:01.220Z,7.1
2018-12-02T03:15:06.176Z,7.1
2018-12-02T03:30:06.209Z,7.1
2018-12-02T03:45:01.168Z,7.1
2018-12-02T04:00:02.310Z,7.2
2018-12-02T04:15:01.089Z,7.2
2018-12-02T04:20:00.985Z,7.3
2018-12-02T04:30:02.137Z,7.3
2018-12-02T04:45:01.140Z,7.3
2018-12-02T04:55:01.047Z,7.4
2018-12-02T05:00:01.110Z,7.4
2018-12-02T05:15:01.171Z,7.4
2018-12-02T05:30:01.175Z,7.4
2018-12-02T05:45:01.169Z,7.5
2018-12-02T06:00:01.204Z,7.5
2018-12-02T06:05:01.105Z,7.6
2018-12-02T06:15:01.196Z,7.6
2018-12-02T06:30:00.969Z,7.7
2018-12-02T06:45:01.037Z,7.7
2018-12-02T07:00:01.012Z,7.7
2018-12-02T07:15:01.021Z,7.6
2018-12-02T07:30:00.994Z,7.6
2018-12-02T07:45:00.986Z,7.6
2018-12-02T07:50:00.988Z,7.7
2018-12-02T08:00:00.997Z,7.7
2018-12-02T08:15:01.001Z,7.7
2018-12-02T08:20:01.000Z,7.8
2018-12-02T08:30:01.016Z,7.8
2018-12-02T08:40:01.015Z,7.9
2018-12-02T08:45:01.032Z,7.9
2018-12-02T08:55:01.044Z,8.0
2018-12-02T09:00:01.058Z,8.0
2018-12-02T09:15:01.040Z,8.0
2018-12-02T09:30:01.042Z,8.0
2018-12-02T09:35:01.060Z,8.1
2018-12-02T09:45:01.074Z,8.1
2018-12-02T09:55:01.069Z,8.2
2018-12-02T10:00:01.024Z,8.2
2018-12-02T10:15:01.078Z,8.2
2018-12-02T10:30:01.063Z,8.2
2018-12-02T10:35:01.037Z,8.3
2018-12-02T10:45:01.055Z,8.3
2018-12-02T11:00:01.022Z,8.4
2018-12-02T11:15:01.049Z,8.4
2018-12-02T11:30:01.067Z,8.3
2018-12-02T11:40:01.064Z,8.4
2018-12-02T11:45:01.092Z,8.4
2018-12-02T11:55:01.080Z,8.5
2018-12-02T12:00:01.077Z,8.5
2018-12-02T12:05:01.089Z,8.6
2018-12-02T12:15:01.222Z,8.6
2018-12-02T12:30:01.086Z,8.7
2018-12-02T12:45:01.099Z,8.7
2018-12-02T13:00:01.100Z,8.7
2018-12-02T13:15:01.114Z,8.7
2018-12-02T13:30:01.133Z,8.7
2018-12-02T13:45:01.141Z,8.8
2018-12-02T14:00:01.098Z,8.8
2018-12-02T14:15:01.115Z,8.8
2018-12-02T14:30:01.097Z,8.8
2018-12-02T14:45:01.110Z,8.8
2018-12-02T15:00:01.119Z,8.8
2018-12-02T15:15:01.120Z,8.8
2018-12-02T15:30:01.127Z,8.8
2018-12-02T15:45:01.121Z,8.8
2018-12-02T16:00:01.133Z,8.8
2018-12-02T16:15:01.162Z,8.8
2018-12-02T16:30:01.209Z,8.8
2018-12-02T16:45:01.211Z,8.8
2018-12-02T17:00:01.366Z,8.8
2018-12-02T17:15:01.219Z,8.8
2018-12-02T17:30:01.239Z,8.8
2018-12-02T17:45:01.222Z,8.8
2018-12-02T18:00:01.192Z,8.8
2018-12-02T18:15:01.234Z,8.8
2018-12-02T18:21:04.270Z,9.1
2018-12-02T18:40:00.824Z,9.1
2018-12-02T18:45:00.704Z,9.1
2018-12-02T19:00:00.769Z,9.1
2018-12-02T19:10:00.590Z,9.2
2018-12-02T19:15:01.000Z,9.2
2018-12-02T19:25:01.442Z,9.1
2018-12-02T19:30:02.341Z,9.1
2018-12-02T19:40:00.605Z,9.0
2018-12-02T19:45:00.882Z,9.0
2018-12-02T19:50:00.868Z,8.9
2018-12-02T20:00:00.983Z,8.9
2018-12-02T20:15:00.802Z,8.9
2018-12-02T20:30:01.710Z,8.9
2018-12-02T20:45:00.841Z,9.0
2018-12-02T21:00:00.705Z,9.0
2018-12-02T21:10:00.624Z,9.1
2018-12-02T21:15:01.221Z,9.1
2018-12-02T21:30:00.776Z,9.1
2018-12-02T21:45:00.757Z,9.1
2018-12-02T22:00:00.908Z,9.2
2018-12-02T22:15:01.082Z,9.2
2018-12-02T22:30:00.936Z,9.1
2018-12-02T22:35:00.993Z,9.2
2018-12-02T22:45:00.891Z,9.2
2018-12-02T23:00:00.980Z,9.2
2018-12-02T23:15:00.774Z,9.2
2018-12-02T23:20:00.572Z,9.3
2018-12-02T23:30:00.828Z,9.3
2018-12-02T23:45:00.786Z,9.4
2018-12-02T23:55:00.640Z,9.5
